createdAt,value
2023-03-26T00:18:16.896Z,656
2023-03-26T00:38:16.886Z,658
2023-03-26T00:58:16.917Z,672
2023-03-26T01:18:16.911Z,661
2023-03-26T01:58:16.947Z,635
2023-03-26T02:18:16.945Z,612
2023-03-26T02:58:16.959Z,586
2023-03-26T03:58:17.002Z,567
2023-03-26T04:18:16.977Z,562
2023-03-26T04:38:17.048Z,555
2023-03-26T04:58:16.987Z,548
2023-03-26T05:18:16.985Z,541
2023-03-26T05:38:17.010Z,543
2023-03-26T05:58:17.025Z,532
2023-03-26T06:18:17.052Z,525
2023-03-26T06:38:17.045Z,533
2023-03-26T06:58:17.056Z,532
2023-03-26T07:18:17.049Z,527
2023-03-26T07:38:17.081Z,523
2023-03-26T07:58:17.049Z,526
2023-03-26T08:18:17.070Z,519
2023-03-26T08:38:17.102Z,515
2023-03-26T08:58:17.117Z,517
2023-03-26T09:38:17.093Z,520
2023-03-26T09:58:17.177Z,518
2023-03-26T10:18:26.852Z,511
2023-03-26T10:38:17.117Z,524
2023-03-26T10:58:17.149Z,539
2023-03-26T11:18:17.174Z,551
2023-03-26T11:38:17.181Z,561
2023-03-26T11:58:17.164Z,575
2023-03-26T12:18:17.165Z,580
2023-03-26T12:38:17.155Z,580
2023-03-26T12:58:17.161Z,587
2023-03-26T13:38:17.211Z,590
2023-03-26T13:58:17.220Z,591
2023-03-26T14:18:17.223Z,578
2023-03-26T14:38:17.180Z,583
2023-03-26T15:18:17.228Z,571
2023-03-26T15:38:24.239Z,567
2023-03-26T15:58:17.241Z,555
2023-03-26T16:18:17.221Z,560
2023-03-26T16:38:24.243Z,566
2023-03-26T16:58:24.239Z,554
2023-03-26T17:18:17.248Z,551
2023-03-26T17:38:17.311Z,556
2023-03-26T17:58:17.299Z,554
2023-03-26T18:38:17.285Z,547
2023-03-26T18:58:17.317Z,552
2023-03-26T19:18:17.486Z,543
2023-03-26T19:38:17.350Z,540
2023-03-26T19:58:17.346Z,540
2023-03-26T20:18:17.340Z,538
2023-03-26T20:58:17.343Z,534
2023-03-26T21:18:17.376Z,535
2023-03-26T22:18:17.406Z,519
2023-03-26T22:38:17.415Z,519
2023-03-26T22:58:17.439Z,518
2023-03-26T23:18:17.442Z,515
2023-03-26T23:38:24.444Z,514
2023-03-26T23:58:17.488Z,515
